Airfield :
LOGIN :

Register | Disclaimer

   EN    FR    IT 

 










Legend :    VFR   Marginal VFR   IFR   Intensive IFR   Very Intensive IFR
Visi :
Ceiling :
>= 8 km
>= 3000ft
5 to 8 km
1000 to 3000 ft
1500m to 5 km
500 to 1000 ft
800 to 1500m
200 to 500 ft
< 800m
< 200 ft
Symbols :   Thunderstorms  Fog  Heavy snow  Heavy precipitations  Wind > 20 kt
SIGMETs :     Misc.  Thunderstorms  Icing  Turbulence  Mountain Waves  Volcanic Ashes







- Airport Elevation : 162 ft
- IATA code : BOD
- Download approach charts


LFBD - Bordeaux / Merignac

CURRENT METAR :
  • 180300Z AUTO 14011KT 9999 -RA NSC 17/15 Q1012 TEMPO BKN040CB

EXPIRED METARs :
  • 180230Z AUTO 14007KT CAVOK 18/15 Q1013 TEMPO BKN040CB
  • 180200Z AUTO 14009KT CAVOK 18/15 Q1013 TEMPO BKN040CB
  • 180130Z AUTO 14010KT CAVOK 18/15 Q1013 TEMPO BKN040CB
  • 180100Z AUTO 14010KT CAVOK 18/15 Q1013 TEMPO BKN040CB
  • 180030Z AUTO 14010KT CAVOK 18/15 Q1013 TEMPO BKN040CB

TAF TAF LFBD
Valid from the 18 at 00:00 until the 19 at 06:00 UTC


172300Z 1800/1906 12010KT CAVOK
TEMPO 1800/1805 BKN040CB
PROB30
TEMPO 1804/1807 BKN009
BECMG 1812/1814 28008KT BKN030
TEMPO 1814/1820 4000 RA BKN012
PROB30
TEMPO 1815/1817 24015G25KT 1500 TSRA BKN006 BKN020CB
BECMG 1820/1822 OVC005
PROB40 1900/1906 VRB03KT 0500 FG VV/// TX20/1812Z TN14/1906Z
ATIS : +33 5 57 92 81 04
No reported NOTAMs for that airfield.



MET'MAP, your aeronautical weather chart ! - Copyright ORBIFLY December 2007 - Disclaimer

ORBIFLY MET'MAP TEAM :

Programming & Development : Alexandra Zaïnal
Concept & Development : Baudouin d'Aumeries
Co-Development & Prog : Marc-Olivier Méhu
Technical & hardware support : Manuel Goepfert

Contact : metmap@orbifly.com




SOURCES & CREDITS :

   NOAA